createdAt,value
2017-03-12T00:01:10.145Z,6.42
2017-03-12T00:02:21.606Z,6.4
2017-03-12T00:03:33.064Z,6.4
2017-03-12T00:04:44.511Z,6.36
2017-03-12T00:05:55.963Z,6.34
2017-03-12T00:07:07.437Z,6.33
2017-03-12T00:08:18.880Z,6.31
2017-03-12T00:09:30.365Z,6.25
2017-03-12T00:10:41.825Z,6.25
2017-03-12T00:11:53.502Z,6.25
2017-03-12T00:13:04.971Z,6.21
2017-03-12T00:14:16.445Z,6.18
2017-03-12T00:15:27.889Z,6.2
2017-03-12T00:16:39.332Z,6.25
2017-03-12T00:17:50.783Z,6.24
2017-03-12T00:19:02.221Z,6.25
2017-03-12T00:20:13.869Z,6.2
2017-03-12T00:21:25.732Z,6.07
2017-03-12T00:22:37.182Z,6.18
2017-03-12T00:23:48.824Z,6.18
2017-03-12T00:25:00.254Z,6.15
2017-03-12T00:26:11.708Z,6.1
2017-03-12T00:27:23.179Z,6.17
2017-03-12T00:28:34.658Z,6.1
2017-03-12T00:29:46.138Z,6.13
2017-03-12T00:30:57.594Z,6.09
2017-03-12T00:32:09.077Z,6.07
2017-03-12T00:33:20.728Z,6.06
2017-03-12T00:34:32.204Z,6.05
2017-03-12T00:35:43.646Z,6.02
2017-03-12T00:36:55.100Z,6.02
2017-03-12T00:38:06.553Z,5.96
2017-03-12T00:39:18.198Z,5.91
2017-03-12T00:40:29.643Z,5.99
2017-03-12T00:41:41.287Z,5.85
2017-03-12T00:42:52.736Z,5.82
2017-03-12T00:44:04.206Z,5.85
2017-03-12T00:45:15.657Z,5.87
2017-03-12T00:46:27.152Z,5.8
2017-03-12T00:47:38.582Z,5.81
2017-03-12T00:48:50.018Z,5.78
2017-03-12T00:50:01.694Z,5.7
2017-03-12T00:51:13.156Z,5.7
2017-03-12T00:52:24.636Z,5.7
2017-03-12T00:53:36.283Z,5.67
2017-03-12T00:54:47.733Z,5.72
2017-03-12T00:55:59.192Z,5.73
2017-03-12T00:57:10.653Z,5.57
2017-03-12T00:58:22.113Z,5.7
2017-03-12T00:59:33.559Z,5.66
2017-03-12T01:00:45.003Z,5.69
2017-03-12T01:01:56.470Z,5.69
2017-03-12T01:03:07.937Z,5.7
2017-03-12T01:04:19.379Z,5.7
2017-03-12T01:05:30.828Z,5.66
2017-03-12T01:06:42.279Z,5.7
2017-03-12T01:07:53.982Z,5.66
2017-03-12T01:09:05.445Z,5.67
2017-03-12T01:10:16.899Z,5.64
2017-03-12T01:11:28.749Z,5.57
2017-03-12T01:12:40.601Z,5.6
2017-03-12T01:13:52.248Z,5.55
2017-03-12T01:15:03.683Z,5.55
2017-03-12T01:16:15.124Z,5.55
2017-03-12T01:17:26.613Z,5.6
2017-03-12T01:18:38.087Z,5.57
2017-03-12T01:19:49.537Z,5.57
2017-03-12T01:21:01.197Z,5.49
2017-03-12T01:22:12.679Z,5.48
2017-03-12T01:23:24.124Z,5.48
2017-03-12T01:24:35.562Z,5.42
2017-03-12T01:25:47.015Z,5.46
2017-03-12T01:26:58.470Z,5.41
2017-03-12T01:28:10.135Z,5.44
2017-03-12T01:29:21.981Z,5.39
2017-03-12T01:30:33.412Z,5.45
2017-03-12T01:31:44.857Z,5.41
2017-03-12T01:32:56.515Z,5.44
2017-03-12T01:34:07.954Z,5.41
2017-03-12T01:35:19.389Z,5.41
2017-03-12T01:36:30.840Z,5.34
2017-03-12T01:37:42.490Z,5.39
2017-03-12T01:38:53.967Z,5.41
2017-03-12T01:40:05.605Z,5.33
2017-03-12T01:41:17.054Z,5.39
2017-03-12T01:42:28.533Z,5.42
2017-03-12T01:43:40.287Z,5.41
2017-03-12T01:44:51.750Z,5.41
2017-03-12T01:46:03.222Z,5.36
2017-03-12T01:47:14.692Z,5.31
2017-03-12T01:48:26.574Z,5.28
2017-03-12T01:49:38.036Z,5.28
2017-03-12T01:50:49.484Z,5.28
2017-03-12T01:52:00.932Z,5.33
2017-03-12T01:53:12.575Z,5.24
2017-03-12T01:54:24.276Z,5.28
2017-03-12T01:55:35.747Z,5.3
2017-03-12T01:56:47.207Z,5.27
2017-03-12T01:57:58.666Z,5.33
2017-03-12T01:59:10.120Z,5.28
2017-03-12T02:00:21.567Z,5.24
2017-03-12T02:01:33.241Z,5.18
2017-03-12T02:02:44.674Z,5.24
2017-03-12T02:03:56.312Z,5.24
2017-03-12T02:05:07.834Z,5.18
2017-03-12T02:06:19.287Z,5.12
2017-03-12T02:07:30.748Z,5.15
2017-03-12T02:08:42.207Z,5.13
2017-03-12T02:09:53.637Z,5.15
2017-03-12T02:11:05.101Z,5.09
2017-03-12T02:12:16.523Z,5.08
2017-03-12T02:13:27.988Z,5.02
2017-03-12T02:14:39.451Z,4.98
2017-03-12T02:15:50.916Z,5.03
2017-03-12T02:17:02.359Z,4.95
2017-03-12T02:18:13.802Z,4.94
2017-03-12T02:19:25.254Z,4.97
2017-03-12T02:20:36.698Z,4.95
2017-03-12T02:21:48.188Z,4.88
2017-03-12T02:22:59.842Z,4.88
2017-03-12T02:24:11.317Z,4.98
2017-03-12T02:25:22.748Z,5
2017-03-12T02:26:34.183Z,4.91
2017-03-12T02:27:45.822Z,4.92
2017-03-12T02:28:57.256Z,4.95
2017-03-12T02:30:08.927Z,4.97
2017-03-12T02:31:20.571Z,4.9
2017-03-12T02:32:32.026Z,4.92
2017-03-12T02:33:43.486Z,4.9
2017-03-12T02:34:54.947Z,4.97
2017-03-12T02:36:06.399Z,4.97
2017-03-12T02:37:18.068Z,4.9
2017-03-12T02:38:29.550Z,4.94
2017-03-12T02:39:41.004Z,4.98
2017-03-12T02:40:52.653Z,4.92
2017-03-12T02:42:04.132Z,4.85
2017-03-12T02:43:15.585Z,4.97
2017-03-12T02:44:27.230Z,4.94
2017-03-12T02:45:38.684Z,4.9
2017-03-12T02:46:50.180Z,4.94
2017-03-12T02:48:01.603Z,4.87
2017-03-12T02:49:13.049Z,4.88
2017-03-12T02:50:24.922Z,4.87
2017-03-12T02:51:36.386Z,4.87
2017-03-12T02:52:47.825Z,4.87
2017-03-12T02:53:59.282Z,4.85
2017-03-12T02:55:10.721Z,4.85
2017-03-12T02:56:22.173Z,4.87
2017-03-12T02:57:34.286Z,4.76
2017-03-12T02:58:45.732Z,4.88
2017-03-12T02:59:57.400Z,4.85
2017-03-12T03:01:08.842Z,4.74
2017-03-12T03:02:20.279Z,4.71
2017-03-12T03:03:31.719Z,4.83
2017-03-12T03:04:43.146Z,4.72
2017-03-12T03:05:54.786Z,4.68
2017-03-12T03:07:06.232Z,4.72
2017-03-12T03:08:17.770Z,4.69
2017-03-12T03:09:29.234Z,4.64
2017-03-12T03:10:40.734Z,4.64
2017-03-12T03:11:52.175Z,4.69
2017-03-12T03:13:03.637Z,4.66
2017-03-12T03:14:15.107Z,4.68
2017-03-12T03:15:26.747Z,4.58
2017-03-12T03:16:38.395Z,4.64
2017-03-12T03:17:49.825Z,4.57
2017-03-12T03:19:01.513Z,4.61
2017-03-12T03:20:12.982Z,4.61
2017-03-12T03:21:24.433Z,4.56
2017-03-12T03:22:35.890Z,4.61
2017-03-12T03:23:47.338Z,4.57
2017-03-12T03:24:58.796Z,4.6
2017-03-12T03:26:10.634Z,4.65
2017-03-12T03:27:22.078Z,4.58
2017-03-12T03:28:33.736Z,4.57
2017-03-12T03:29:45.174Z,4.61
2017-03-12T03:30:56.603Z,4.53
2017-03-12T03:32:08.262Z,4.6
2017-03-12T03:33:19.721Z,4.6
2017-03-12T03:34:31.628Z,4.61
2017-03-12T03:35:43.068Z,4.57
2017-03-12T03:36:54.518Z,4.47
2017-03-12T03:38:05.962Z,4.5
2017-03-12T03:39:17.418Z,4.6
2017-03-12T03:40:28.864Z,4.47
2017-03-12T03:41:40.349Z,4.51
2017-03-12T03:42:51.823Z,4.38
2017-03-12T03:44:03.475Z,4.5
2017-03-12T03:45:15.139Z,4.39
2017-03-12T03:46:26.770Z,4.44
2017-03-12T03:47:38.401Z,4.36
2017-03-12T03:48:49.848Z,4.3
2017-03-12T03:50:01.493Z,4.3
2017-03-12T03:51:12.945Z,4.29
2017-03-12T03:52:24.595Z,4.24
2017-03-12T03:53:36.053Z,4.29
2017-03-12T03:54:47.546Z,4.3
2017-03-12T03:55:59.036Z,4.22
2017-03-12T03:57:10.477Z,4.2
2017-03-12T03:58:21.929Z,4.21
2017-03-12T03:59:33.376Z,4.29
2017-03-12T04:00:44.816Z,4.22
2017-03-12T04:01:56.458Z,4.26
2017-03-12T04:03:07.912Z,4.24
2017-03-12T04:04:19.380Z,4.21
2017-03-12T04:05:30.887Z,4.22
2017-03-12T04:06:42.339Z,4.32
2017-03-12T04:07:53.788Z,4.33
2017-03-12T04:09:05.228Z,4.17
2017-03-12T04:10:16.670Z,4.2
2017-03-12T04:11:28.109Z,4.2
2017-03-12T04:12:39.556Z,4.2
2017-03-12T04:13:51.012Z,4.28
2017-03-12T04:15:02.644Z,4.32
2017-03-12T04:16:14.349Z,4.24
2017-03-12T04:17:25.988Z,4.2
2017-03-12T04:18:37.425Z,4.29
2017-03-12T04:19:49.082Z,4.3
2017-03-12T04:21:00.720Z,4.35
2017-03-12T04:22:12.181Z,4.3
2017-03-12T04:23:23.618Z,4.3
2017-03-12T04:24:35.256Z,4.33
2017-03-12T04:25:46.711Z,4.35
2017-03-12T04:26:58.223Z,4.28
2017-03-12T04:28:09.661Z,4.36
2017-03-12T04:29:21.321Z,4.28
2017-03-12T04:30:32.991Z,4.3
2017-03-12T04:31:44.462Z,4.24
2017-03-12T04:32:56.101Z,4.28
2017-03-12T04:34:07.570Z,4.17
2017-03-12T04:35:19.014Z,4.28
2017-03-12T04:36:30.673Z,4.24
2017-03-12T04:37:42.135Z,4.21
2017-03-12T04:38:53.582Z,4.29
2017-03-12T04:40:05.028Z,4.21
2017-03-12T04:41:16.482Z,4.15
2017-03-12T04:42:27.917Z,4.17
2017-03-12T04:43:39.413Z,4.18
2017-03-12T04:44:50.857Z,4.2
2017-03-12T04:46:02.708Z,4.17
2017-03-12T04:47:14.360Z,4.18
2017-03-12T04:48:26.012Z,4.17
2017-03-12T04:49:37.447Z,4.14
2017-03-12T04:50:49.103Z,4.08
2017-03-12T04:52:00.582Z,4.07
2017-03-12T04:53:12.020Z,4.1
2017-03-12T04:54:23.673Z,4.08
2017-03-12T04:55:35.113Z,4.15
2017-03-12T04:56:46.571Z,4.03
2017-03-12T04:57:58.022Z,4.07
2017-03-12T04:59:09.665Z,4.03
2017-03-12T05:00:21.117Z,4
2017-03-12T05:01:32.977Z,3.94
2017-03-12T05:02:44.434Z,3.99
2017-03-12T05:03:55.892Z,3.96
2017-03-12T05:05:07.338Z,4.02
2017-03-12T05:06:18.785Z,3.96
2017-03-12T05:07:30.240Z,3.94
2017-03-12T05:08:41.905Z,3.96
2017-03-12T05:09:53.366Z,3.99
2017-03-12T05:11:04.824Z,4
2017-03-12T05:12:16.285Z,3.97
2017-03-12T05:13:27.728Z,3.92
2017-03-12T05:14:39.167Z,3.94
2017-03-12T05:15:50.611Z,3.92
2017-03-12T05:17:02.052Z,4.02
2017-03-12T05:18:13.497Z,3.99
2017-03-12T05:19:25.216Z,4
2017-03-12T05:20:36.647Z,4.02
2017-03-12T05:21:48.105Z,3.99
2017-03-12T05:22:59.554Z,3.94
2017-03-12T05:24:11.023Z,3.97
2017-03-12T05:25:22.674Z,3.94
2017-03-12T05:26:34.139Z,3.94
2017-03-12T05:27:45.587Z,3.96
2017-03-12T05:28:57.019Z,3.9
2017-03-12T05:30:08.538Z,3.99
2017-03-12T05:31:20.201Z,3.94
2017-03-12T05:32:31.690Z,3.94
2017-03-12T05:33:43.135Z,3.9
2017-03-12T05:34:54.593Z,3.96
2017-03-12T05:36:06.049Z,3.89
2017-03-12T05:37:17.687Z,3.93
2017-03-12T05:38:29.167Z,3.92
2017-03-12T05:39:40.815Z,3.97
2017-03-12T05:40:52.463Z,3.89
2017-03-12T05:42:03.919Z,3.92
2017-03-12T05:43:15.372Z,3.97
2017-03-12T05:44:26.819Z,4
2017-03-12T05:45:38.323Z,3.85
2017-03-12T05:46:49.798Z,3.84
2017-03-12T05:48:01.253Z,3.81
2017-03-12T05:49:12.701Z,3.9
2017-03-12T05:50:24.149Z,3.96
2017-03-12T05:51:35.580Z,3.85
2017-03-12T05:52:47.041Z,3.85
2017-03-12T05:53:58.495Z,3.86
2017-03-12T05:55:09.927Z,3.92
2017-03-12T05:56:21.373Z,3.82
2017-03-12T05:57:32.806Z,3.85
2017-03-12T05:58:44.261Z,3.82
2017-03-12T05:59:55.686Z,3.85
2017-03-12T06:01:07.186Z,3.89
2017-03-12T06:02:18.632Z,3.86
2017-03-12T06:03:30.063Z,3.92
2017-03-12T06:04:41.513Z,3.94
2017-03-12T06:05:53.164Z,3.99
2017-03-12T06:07:04.634Z,3.84
2017-03-12T06:08:16.083Z,3.85
2017-03-12T06:09:27.527Z,3.97
2017-03-12T06:10:38.962Z,3.94
2017-03-12T06:11:50.398Z,3.9
2017-03-12T06:13:02.058Z,3.94
2017-03-12T06:14:13.495Z,3.96
2017-03-12T06:15:24.920Z,4.02
2017-03-12T06:16:36.575Z,4
2017-03-12T06:17:48.087Z,3.99
2017-03-12T06:18:59.558Z,4.11
2017-03-12T06:20:11.003Z,4.17
2017-03-12T06:21:22.447Z,4.15
2017-03-12T06:22:33.897Z,4.21
2017-03-12T06:23:45.336Z,4.21
2017-03-12T06:24:56.793Z,4.32
2017-03-12T06:26:08.229Z,4.26
2017-03-12T06:27:19.684Z,4.36
2017-03-12T06:28:31.145Z,4.3
2017-03-12T06:29:42.615Z,4.46
2017-03-12T06:30:54.063Z,4.35
2017-03-12T06:32:05.916Z,4.42
2017-03-12T06:33:17.357Z,4.46
2017-03-12T06:34:28.799Z,4.47
2017-03-12T06:35:40.253Z,4.53
2017-03-12T06:36:51.704Z,4.54
2017-03-12T06:38:03.464Z,4.58
2017-03-12T06:39:14.922Z,4.57
2017-03-12T06:40:26.563Z,4.6
2017-03-12T06:41:38.038Z,4.61
2017-03-12T06:42:49.490Z,4.56
2017-03-12T06:44:01.160Z,4.65
2017-03-12T06:45:12.814Z,4.75
2017-03-12T06:46:24.241Z,4.69
2017-03-12T06:47:35.707Z,4.85
2017-03-12T06:48:47.455Z,4.95
2017-03-12T06:49:58.899Z,4.97
2017-03-12T06:51:10.351Z,4.94
2017-03-12T06:52:21.811Z,4.87
2017-03-12T06:53:33.261Z,5
2017-03-12T06:54:44.692Z,5
2017-03-12T06:55:56.152Z,5.15
2017-03-12T06:57:07.618Z,5.16
2017-03-12T06:58:19.058Z,5.33
2017-03-12T06:59:30.488Z,5.44
2017-03-12T07:00:41.936Z,5.48
2017-03-12T07:01:53.574Z,5.51
2017-03-12T07:03:05.024Z,5.59
2017-03-12T07:04:16.670Z,5.63
2017-03-12T07:05:28.105Z,5.78
2017-03-12T07:06:39.561Z,5.84
2017-03-12T07:07:51.020Z,5.99
2017-03-12T07:09:02.455Z,6.13
2017-03-12T07:10:13.930Z,6.17
2017-03-12T07:11:25.399Z,6.37
2017-03-12T07:12:36.851Z,6.42
2017-03-12T07:13:48.299Z,6.7
2017-03-12T07:14:59.761Z,6.8
2017-03-12T07:16:11.200Z,6.88
2017-03-12T07:17:22.661Z,6.93
2017-03-12T07:18:34.323Z,7
2017-03-12T07:19:46.180Z,7.15
2017-03-12T07:20:58.141Z,7.15
2017-03-12T07:22:09.595Z,7.11
2017-03-12T07:23:21.037Z,7.11
2017-03-12T07:24:32.478Z,7.19
2017-03-12T07:25:43.945Z,7.31
2017-03-12T07:26:55.412Z,7.41
2017-03-12T07:28:06.868Z,7.51
2017-03-12T07:29:18.338Z,7.61
2017-03-12T07:30:30.285Z,7.75
2017-03-12T07:31:41.749Z,7.82
2017-03-12T07:32:53.192Z,7.7
2017-03-12T07:34:04.656Z,7.64
2017-03-12T07:35:16.114Z,7.54
2017-03-12T07:36:27.580Z,7.67
2017-03-12T07:37:39.027Z,7.77
2017-03-12T07:38:50.490Z,7.88
2017-03-12T07:40:01.951Z,7.78
2017-03-12T07:41:13.400Z,7.68
2017-03-12T07:42:24.849Z,7.58
2017-03-12T07:43:36.496Z,7.52
2017-03-12T07:44:47.953Z,7.52
2017-03-12T07:45:59.460Z,7.67
2017-03-12T07:47:10.922Z,7.91
2017-03-12T07:48:22.398Z,8.07
2017-03-12T07:49:33.861Z,8.07
2017-03-12T07:50:45.320Z,8.17
2017-03-12T07:51:56.761Z,8.21
2017-03-12T07:53:08.234Z,8.22
2017-03-12T07:54:19.726Z,8.28
2017-03-12T07:55:31.587Z,8.47
2017-03-12T07:56:43.109Z,8.44
2017-03-12T07:57:54.781Z,8.42
2017-03-12T07:59:06.226Z,8.39
2017-03-12T08:00:17.685Z,8.46
2017-03-12T08:01:29.168Z,8.42
2017-03-12T08:02:40.631Z,8.68
2017-03-12T08:03:52.090Z,8.92
2017-03-12T08:05:03.550Z,9.05
2017-03-12T08:06:15.015Z,9.16
2017-03-12T08:07:26.535Z,9.11
2017-03-12T08:08:37.979Z,9.42
2017-03-12T08:09:49.460Z,9.53
2017-03-12T08:11:00.929Z,9.82
2017-03-12T08:12:12.409Z,9.99
2017-03-12T08:13:23.887Z,10.03
2017-03-12T08:14:35.335Z,10.11
2017-03-12T08:15:46.805Z,10.26
2017-03-12T08:16:58.291Z,10.25
2017-03-12T08:18:09.736Z,10.32
2017-03-12T08:19:21.191Z,10.31
2017-03-12T08:20:32.644Z,10.28
2017-03-12T08:21:44.103Z,10.26
2017-03-12T08:22:55.794Z,10.28
2017-03-12T08:24:07.252Z,10.31
2017-03-12T08:25:18.709Z,10.32
2017-03-12T08:26:30.207Z,10.47
2017-03-12T08:27:41.684Z,10.61
2017-03-12T08:28:53.132Z,10.72
2017-03-12T08:30:04.814Z,10.77
2017-03-12T08:31:16.296Z,10.88
2017-03-12T08:32:27.767Z,10.85
2017-03-12T08:33:39.267Z,10.97
2017-03-12T08:34:50.739Z,11.08
2017-03-12T08:36:02.190Z,11.1
2017-03-12T08:37:13.655Z,11.24
2017-03-12T08:38:25.320Z,11.12
2017-03-12T08:39:36.769Z,11.2
2017-03-12T08:40:48.234Z,11.06
2017-03-12T08:41:59.734Z,11.08
2017-03-12T08:43:11.192Z,11.21
2017-03-12T08:44:22.663Z,11.18
2017-03-12T08:45:34.130Z,11.27
2017-03-12T08:46:45.782Z,11.49
2017-03-12T08:47:57.263Z,11.26
2017-03-12T08:49:08.740Z,11.03
2017-03-12T08:50:20.491Z,10.84
2017-03-12T08:51:31.938Z,10.87
2017-03-12T08:52:43.795Z,10.9
2017-03-12T08:53:55.464Z,10.9
2017-03-12T08:55:06.924Z,10.87
2017-03-12T08:56:18.379Z,10.9
2017-03-12T08:57:30.033Z,10.69
2017-03-12T08:58:41.487Z,10.52
2017-03-12T08:59:53.252Z,10.55
2017-03-12T09:01:04.743Z,10.42
2017-03-12T09:02:16.208Z,10.42
2017-03-12T09:03:27.683Z,10.39
2017-03-12T09:04:39.145Z,10.38
2017-03-12T09:05:50.589Z,10.38
2017-03-12T09:07:02.261Z,10.47
2017-03-12T09:08:13.722Z,10.52
2017-03-12T09:09:25.178Z,10.57
2017-03-12T09:10:36.933Z,10.72
2017-03-12T09:11:48.582Z,10.83
2017-03-12T09:13:00.081Z,10.94
2017-03-12T09:14:11.731Z,11.23
2017-03-12T09:15:23.199Z,11.61
2017-03-12T09:16:34.669Z,11.75
2017-03-12T09:17:46.134Z,12.08
2017-03-12T09:18:57.608Z,12.38
2017-03-12T09:20:09.055Z,12.55
2017-03-12T09:21:20.528Z,12.81
2017-03-12T09:22:32.210Z,12.95
2017-03-12T09:23:43.681Z,12.91
2017-03-12T09:24:55.154Z,12.98
2017-03-12T09:26:06.822Z,12.88
2017-03-12T09:27:18.555Z,13.03
2017-03-12T09:28:30.018Z,13.11
2017-03-12T09:29:41.685Z,13.16
2017-03-12T09:30:53.153Z,13.16
2017-03-12T09:32:04.829Z,13.27
2017-03-12T09:33:16.500Z,13.35
2017-03-12T09:34:27.982Z,13.44
2017-03-12T09:35:39.440Z,13.58
2017-03-12T09:36:51.214Z,13.58
2017-03-12T09:38:02.708Z,13.65
2017-03-12T09:39:14.370Z,13.87
2017-03-12T09:40:25.831Z,13.87
2017-03-12T09:41:37.287Z,13.84
2017-03-12T09:42:48.957Z,13.93
2017-03-12T09:44:00.651Z,13.86
2017-03-12T09:45:12.158Z,13.86
2017-03-12T09:46:23.626Z,13.86
2017-03-12T09:47:35.091Z,13.83
2017-03-12T09:48:46.550Z,13.76
2017-03-12T09:49:58.039Z,13.57
2017-03-12T09:51:09.502Z,13.63
2017-03-12T09:52:21.170Z,13.73
2017-03-12T09:53:32.649Z,13.99
2017-03-12T09:54:44.116Z,14.06
2017-03-12T09:55:55.584Z,14.19
2017-03-12T09:57:07.256Z,14.05
2017-03-12T09:58:18.927Z,14.23
2017-03-12T09:59:30.803Z,14.38
2017-03-12T10:00:42.483Z,14.45
2017-03-12T10:01:53.923Z,14.57
2017-03-12T10:03:05.414Z,14.53
2017-03-12T10:04:16.886Z,14.53
2017-03-12T10:05:28.580Z,14.61
2017-03-12T10:06:40.452Z,14.67
2017-03-12T10:07:51.926Z,14.7
2017-03-12T10:09:03.389Z,14.98
2017-03-12T10:10:14.866Z,15.13
2017-03-12T10:11:26.337Z,14.94
2017-03-12T10:12:38.495Z,15.18
2017-03-12T10:13:49.972Z,15
2017-03-12T10:15:01.438Z,14.86
2017-03-12T10:16:12.941Z,14.7
2017-03-12T10:17:24.609Z,14.63
2017-03-12T10:18:36.089Z,14.49
2017-03-12T10:19:47.569Z,14.49
2017-03-12T10:20:59.026Z,14.59
2017-03-12T10:22:10.476Z,14.82
2017-03-12T10:23:21.947Z,15.02
2017-03-12T10:24:33.835Z,14.87
2017-03-12T10:25:45.300Z,15.01
2017-03-12T10:26:56.765Z,15.01
2017-03-12T10:28:08.263Z,15.01
2017-03-12T10:29:20.024Z,15.08
2017-03-12T10:30:31.495Z,15.31
2017-03-12T10:31:42.955Z,15.56
2017-03-12T10:32:54.623Z,15.59
2017-03-12T10:34:06.109Z,15.34
2017-03-12T10:35:17.571Z,15.13
2017-03-12T10:36:29.042Z,15.1
2017-03-12T10:37:40.506Z,15.18
2017-03-12T10:38:52.466Z,15.25
2017-03-12T10:40:03.909Z,15.19
2017-03-12T10:41:15.383Z,15.15
2017-03-12T10:42:27.090Z,15.27
2017-03-12T10:43:38.544Z,15.52
2017-03-12T10:44:50.005Z,15.78
2017-03-12T10:46:01.467Z,15.88
2017-03-12T10:47:12.939Z,15.91
2017-03-12T10:48:24.426Z,15.95
2017-03-12T10:49:36.123Z,15.83
2017-03-12T10:50:47.581Z,15.86
2017-03-12T10:51:59.049Z,15.98
2017-03-12T10:53:10.741Z,15.93
2017-03-12T10:54:22.206Z,15.95
2017-03-12T10:55:33.672Z,15.86
2017-03-12T10:56:45.121Z,15.81
2017-03-12T10:57:56.597Z,15.86
2017-03-12T10:59:08.256Z,15.89
2017-03-12T11:00:19.710Z,15.77
2017-03-12T11:01:31.397Z,15.51
2017-03-12T11:02:42.873Z,15.59
2017-03-12T11:03:54.758Z,15.7
2017-03-12T11:05:06.486Z,15.63
2017-03-12T11:06:17.953Z,15.45
2017-03-12T11:07:29.421Z,15.68
2017-03-12T11:08:40.891Z,15.68
2017-03-12T11:09:52.376Z,15.74
2017-03-12T11:11:03.837Z,15.53
2017-03-12T11:12:15.316Z,15.63
2017-03-12T11:13:26.816Z,15.92
2017-03-12T11:14:38.319Z,15.77
2017-03-12T11:15:49.847Z,15.77
2017-03-12T11:17:01.307Z,15.86
2017-03-12T11:18:12.774Z,15.84
2017-03-12T11:19:24.448Z,15.81
2017-03-12T11:20:35.916Z,15.96
2017-03-12T11:21:47.620Z,15.92
2017-03-12T11:22:59.076Z,16.1
2017-03-12T11:24:10.765Z,16.08
2017-03-12T11:25:22.454Z,16.22
2017-03-12T11:26:33.982Z,16.33
2017-03-12T11:27:45.674Z,16.54
2017-03-12T11:28:57.137Z,16.58
2017-03-12T11:30:08.601Z,16.66
2017-03-12T11:31:20.062Z,16.44
2017-03-12T11:32:31.546Z,16.08
2017-03-12T11:33:43.034Z,16.04
2017-03-12T11:34:54.499Z,16.25
2017-03-12T11:36:05.962Z,16.33
2017-03-12T11:37:17.478Z,16.27
2017-03-12T11:38:28.955Z,16.36
2017-03-12T11:39:40.647Z,16.39
2017-03-12T11:40:52.119Z,16.42
2017-03-12T11:42:03.632Z,16.04
2017-03-12T11:43:15.097Z,15.95
2017-03-12T11:44:26.566Z,16.11
2017-03-12T11:45:38.034Z,15.93
2017-03-12T11:46:49.495Z,15.96
2017-03-12T11:48:00.952Z,15.96
2017-03-12T11:49:12.404Z,15.89
2017-03-12T11:50:23.866Z,15.88
2017-03-12T11:51:35.346Z,15.92
2017-03-12T11:52:47.037Z,15.93
2017-03-12T11:53:58.714Z,16.04
2017-03-12T11:55:10.178Z,16.18
2017-03-12T11:56:21.679Z,16.22
2017-03-12T11:57:33.462Z,16.13
2017-03-12T11:58:45.121Z,15.92
2017-03-12T11:59:56.566Z,15.93
2017-03-12T12:01:08.040Z,15.95
2017-03-12T12:02:19.714Z,15.95
2017-03-12T12:03:31.201Z,16
2017-03-12T12:04:42.875Z,15.98
2017-03-12T12:05:54.334Z,15.96
2017-03-12T12:07:05.982Z,16.07
2017-03-12T12:08:17.466Z,16.18
2017-03-12T12:09:28.927Z,16.29
2017-03-12T12:10:40.396Z,16.07
2017-03-12T12:11:52.073Z,16.07
2017-03-12T12:13:03.583Z,15.89
2017-03-12T12:14:15.063Z,15.98
2017-03-12T12:15:26.532Z,15.93
2017-03-12T12:16:38.001Z,15.96
2017-03-12T12:17:49.478Z,16.08
2017-03-12T12:19:01.131Z,16.3
2017-03-12T12:20:12.609Z,16.47
2017-03-12T12:21:24.086Z,16.58
2017-03-12T12:22:35.759Z,16.58
2017-03-12T12:23:47.423Z,16.72
2017-03-12T12:24:59.117Z,16.8
2017-03-12T12:26:10.573Z,16.94
2017-03-12T12:27:22.035Z,16.97
2017-03-12T12:28:33.849Z,16.94
2017-03-12T12:29:45.305Z,17.03
2017-03-12T12:30:56.767Z,17.27
2017-03-12T12:32:08.438Z,17.32
2017-03-12T12:33:19.906Z,16.99
2017-03-12T12:34:31.356Z,16.67
2017-03-12T12:35:42.832Z,16.45
2017-03-12T12:36:54.299Z,16.21
2017-03-12T12:38:05.754Z,15.96
2017-03-12T12:39:17.506Z,15.77
2017-03-12T12:40:28.989Z,15.7
2017-03-12T12:41:40.455Z,15.58
2017-03-12T12:42:51.950Z,15.62
2017-03-12T12:44:03.398Z,15.65
2017-03-12T12:45:14.835Z,15.65
2017-03-12T12:46:26.308Z,15.74
2017-03-12T12:47:37.775Z,15.7
2017-03-12T12:48:49.231Z,15.75
2017-03-12T12:50:00.693Z,15.67
2017-03-12T12:51:12.190Z,15.68
2017-03-12T12:52:23.857Z,15.58
2017-03-12T12:53:35.354Z,15.78
2017-03-12T12:54:47.209Z,15.78
2017-03-12T12:55:58.668Z,15.49
2017-03-12T12:57:10.334Z,15.41
2017-03-12T12:58:21.804Z,15.52
2017-03-12T12:59:33.472Z,15.58
2017-03-12T13:00:45.143Z,15.45
2017-03-12T13:01:56.620Z,15.43
2017-03-12T13:03:08.301Z,15.44
2017-03-12T13:04:19.995Z,15.51
2017-03-12T13:05:31.508Z,15.43
2017-03-12T13:06:42.976Z,15.56
2017-03-12T13:07:54.444Z,15.58
2017-03-12T13:09:06.129Z,15.58
2017-03-12T13:10:17.624Z,15.58
2017-03-12T13:11:29.082Z,15.41
2017-03-12T13:12:40.746Z,15.47
2017-03-12T13:13:52.204Z,15.31
2017-03-12T13:15:03.876Z,15.3
2017-03-12T13:16:15.338Z,15.15
2017-03-12T13:17:26.796Z,15.15
2017-03-12T13:18:38.465Z,15.19
2017-03-12T13:19:49.922Z,14.95
2017-03-12T13:21:01.427Z,14.87
2017-03-12T13:22:12.895Z,14.87
2017-03-12T13:23:24.752Z,14.98
2017-03-12T13:24:36.409Z,14.97
2017-03-12T13:25:48.163Z,14.94
2017-03-12T13:26:59.844Z,15.13
2017-03-12T13:28:11.297Z,15.19
2017-03-12T13:29:22.767Z,15.19
2017-03-12T13:30:34.234Z,15.3
2017-03-12T13:31:45.686Z,15.3
2017-03-12T13:32:57.144Z,15.4
2017-03-12T13:34:08.607Z,15.45
2017-03-12T13:35:20.065Z,15.33
2017-03-12T13:36:31.514Z,15.16
2017-03-12T13:37:42.983Z,15.08
2017-03-12T13:38:54.460Z,14.94
2017-03-12T13:40:05.921Z,14.89
2017-03-12T13:41:17.368Z,14.85
2017-03-12T13:42:29.039Z,14.83
2017-03-12T13:43:40.533Z,14.85
2017-03-12T13:44:52.007Z,14.7
2017-03-12T13:46:03.457Z,14.67
2017-03-12T13:47:15.132Z,14.66
2017-03-12T13:48:26.606Z,14.56
2017-03-12T13:49:38.272Z,14.56
2017-03-12T13:50:49.744Z,14.45
2017-03-12T13:52:01.207Z,14.53
2017-03-12T13:53:12.644Z,14.49
2017-03-12T13:54:24.111Z,14.52
2017-03-12T13:55:35.567Z,14.56
2017-03-12T13:56:47.071Z,14.52
2017-03-12T13:57:58.522Z,14.53
2017-03-12T13:59:09.979Z,14.52
2017-03-12T14:00:21.630Z,14.46
2017-03-12T14:01:33.288Z,14.38
2017-03-12T14:02:45.019Z,14.52
2017-03-12T14:03:56.478Z,14.51
2017-03-12T14:05:08.128Z,14.52
2017-03-12T14:06:19.589Z,14.42
2017-03-12T14:07:31.051Z,14.45
2017-03-12T14:08:42.504Z,14.45
2017-03-12T14:09:53.978Z,14.48
2017-03-12T14:11:05.445Z,14.51
2017-03-12T14:12:17.160Z,14.59
2017-03-12T14:13:28.609Z,14.39
2017-03-12T14:14:40.079Z,14.49
2017-03-12T14:15:51.546Z,14.44
2017-03-12T14:17:03.206Z,14.45
2017-03-12T14:18:14.704Z,14.36
2017-03-12T14:19:26.152Z,14.23
2017-03-12T14:20:37.603Z,14.15
2017-03-12T14:21:49.047Z,14.09
2017-03-12T14:23:00.561Z,14.01
2017-03-12T14:24:12.003Z,14.08
2017-03-12T14:25:23.649Z,14.02
2017-03-12T14:26:35.106Z,14.11
2017-03-12T14:27:46.559Z,14.02
2017-03-12T14:28:58.005Z,13.93
2017-03-12T14:30:09.461Z,13.9
2017-03-12T14:31:20.918Z,13.9
2017-03-12T14:32:32.389Z,13.97
2017-03-12T14:33:43.850Z,13.9
2017-03-12T14:34:55.310Z,13.88
2017-03-12T14:36:06.964Z,13.79
2017-03-12T14:37:18.430Z,13.68
2017-03-12T14:38:30.399Z,13.78
2017-03-12T14:39:42.051Z,13.69
2017-03-12T14:40:53.949Z,13.81
2017-03-12T14:42:05.440Z,13.81
2017-03-12T14:43:16.907Z,13.87
2017-03-12T14:44:28.385Z,13.78
2017-03-12T14:45:39.859Z,13.9
2017-03-12T14:46:51.317Z,13.86
2017-03-12T14:48:02.977Z,13.9
2017-03-12T14:49:14.622Z,13.83
2017-03-12T14:50:26.100Z,13.83
2017-03-12T14:51:37.752Z,13.76
2017-03-12T14:52:49.446Z,13.72
2017-03-12T14:54:01.206Z,13.69
2017-03-12T14:55:12.666Z,13.69
2017-03-12T14:56:24.312Z,13.7
2017-03-12T14:57:35.751Z,13.68
2017-03-12T14:58:47.211Z,13.73
2017-03-12T14:59:58.658Z,13.75
2017-03-12T15:01:10.319Z,13.81
2017-03-12T15:02:21.984Z,13.81
2017-03-12T15:03:33.456Z,13.81
2017-03-12T15:04:44.897Z,13.84
2017-03-12T15:05:56.555Z,13.87
2017-03-12T15:07:08.019Z,13.81
2017-03-12T15:08:19.487Z,13.83
2017-03-12T15:09:31.161Z,13.7
2017-03-12T15:10:42.655Z,13.69
2017-03-12T15:11:54.127Z,13.69
2017-03-12T15:13:05.581Z,13.81
2017-03-12T15:14:17.048Z,13.81
2017-03-12T15:15:28.508Z,13.78
2017-03-12T15:16:39.956Z,13.81
2017-03-12T15:17:51.399Z,13.84
2017-03-12T15:19:02.833Z,13.69
2017-03-12T15:20:14.509Z,13.79
2017-03-12T15:21:26.171Z,13.66
2017-03-12T15:22:37.612Z,13.57
2017-03-12T15:23:49.086Z,13.54
2017-03-12T15:25:00.537Z,13.42
2017-03-12T15:26:11.997Z,13.45
2017-03-12T15:27:23.453Z,13.44
2017-03-12T15:28:34.916Z,13.39
2017-03-12T15:29:46.400Z,13.39
2017-03-12T15:30:57.865Z,13.45
2017-03-12T15:32:09.316Z,13.39
2017-03-12T15:33:20.785Z,13.37
2017-03-12T15:34:32.234Z,13.47
2017-03-12T15:35:43.709Z,13.4
2017-03-12T15:36:55.390Z,13.37
2017-03-12T15:38:06.849Z,13.37
2017-03-12T15:39:18.295Z,13.42
2017-03-12T15:40:30.004Z,13.25
2017-03-12T15:41:41.449Z,13.32